createdAt,value
2018-06-08T00:00:32.126Z,0
2018-06-08T00:01:40.100Z,0
2018-06-08T00:02:48.168Z,0
2018-06-08T00:03:56.533Z,0
2018-06-08T00:05:04.263Z,0
2018-06-08T00:06:12.399Z,0
2018-06-08T00:07:33.186Z,0
2018-06-08T00:08:28.512Z,0
2018-06-08T00:09:36.576Z,0
2018-06-08T00:10:44.665Z,0
2018-06-08T00:11:52.708Z,0
2018-06-08T00:13:00.777Z,0
2018-06-08T00:14:08.837Z,0
2018-06-08T00:15:16.901Z,0
2018-06-08T00:16:24.967Z,0
2018-06-08T00:17:33.180Z,0
2018-06-08T00:18:41.108Z,0
2018-06-08T00:19:49.181Z,0
2018-06-08T00:20:57.240Z,0
2018-06-08T00:22:05.655Z,0
2018-06-08T00:23:13.407Z,0
2018-06-08T00:24:21.491Z,0
2018-06-08T00:25:29.513Z,0
2018-06-08T00:26:37.588Z,0
2018-06-08T00:27:45.661Z,0
2018-06-08T00:28:53.729Z,0
2018-06-08T00:30:01.788Z,0
2018-06-08T00:31:09.855Z,0
2018-06-08T00:32:18.267Z,0
2018-06-08T00:33:26.005Z,0
2018-06-08T00:34:34.027Z,0
2018-06-08T00:35:42.119Z,0
2018-06-08T00:36:50.190Z,0
2018-06-08T00:37:58.261Z,0
2018-06-08T00:39:06.343Z,0
2018-06-08T00:40:14.618Z,0
2018-06-08T00:41:22.461Z,0
2018-06-08T00:42:30.616Z,0
2018-06-08T00:43:38.584Z,0
2018-06-08T00:44:46.654Z,0
2018-06-08T00:45:54.700Z,0
2018-06-08T00:47:02.837Z,0
2018-06-08T00:48:10.852Z,0
2018-06-08T00:49:18.967Z,0
2018-06-08T00:50:26.992Z,0
2018-06-08T00:51:35.165Z,0
2018-06-08T00:52:43.132Z,0
2018-06-08T00:53:51.203Z,0
2018-06-08T00:54:59.265Z,0
2018-06-08T00:56:07.434Z,0
2018-06-08T00:57:15.396Z,0
2018-06-08T00:58:23.468Z,0
2018-06-08T00:59:31.545Z,0
2018-06-08T01:00:39.606Z,0
2018-06-08T01:01:47.674Z,0
2018-06-08T01:02:55.948Z,0
2018-06-08T01:04:03.997Z,0
2018-06-08T01:05:12.078Z,0
2018-06-08T01:06:20.147Z,0
2018-06-08T01:07:28.204Z,0
2018-06-08T01:08:36.279Z,0
2018-06-08T01:09:44.361Z,0
2018-06-08T01:10:52.416Z,0
2018-06-08T01:12:00.479Z,0
2018-06-08T01:13:08.544Z,0
2018-06-08T01:14:16.623Z,0
2018-06-08T01:15:24.643Z,0
2018-06-08T01:16:32.739Z,0
2018-06-08T01:17:40.812Z,0
2018-06-08T01:18:48.878Z,0
2018-06-08T01:19:56.943Z,0
2018-06-08T01:21:05.016Z,0
2018-06-08T01:22:13.072Z,0
2018-06-08T01:23:21.238Z,0
2018-06-08T01:24:29.206Z,0
2018-06-08T01:25:37.285Z,0
2018-06-08T01:26:45.352Z,0
2018-06-08T01:27:53.466Z,0
2018-06-08T01:29:01.493Z,0
2018-06-08T01:30:09.569Z,0
2018-06-08T01:31:17.629Z,0
2018-06-08T01:32:25.684Z,0
2018-06-08T01:33:33.751Z,0
2018-06-08T01:34:41.850Z,0
2018-06-08T01:35:49.888Z,0
2018-06-08T01:36:57.946Z,0
2018-06-08T01:38:06.025Z,0
2018-06-08T01:39:14.048Z,0
2018-06-08T01:40:22.144Z,0
2018-06-08T01:41:30.230Z,0
2018-06-08T01:42:38.277Z,0
2018-06-08T01:43:46.370Z,0
2018-06-08T01:44:54.388Z,0
2018-06-08T01:46:02.490Z,0
2018-06-08T01:47:10.554Z,0
2018-06-08T01:48:18.618Z,0
2018-06-08T01:49:26.690Z,0
2018-06-08T01:50:36.104Z,0
2018-06-08T01:51:43.078Z,0
2018-06-08T01:52:51.929Z,0
2018-06-08T01:53:59.208Z,0
2018-06-08T01:55:07.025Z,0
2018-06-08T01:56:15.160Z,0
2018-06-08T01:57:23.156Z,0
2018-06-08T01:58:31.231Z,0
2018-06-08T01:59:39.287Z,0
2018-06-08T02:00:47.560Z,0
2018-06-08T02:01:55.621Z,0
2018-06-08T02:03:03.696Z,0
2018-06-08T02:04:11.791Z,0
2018-06-08T02:05:19.828Z,0
2018-06-08T02:06:27.890Z,0
2018-06-08T02:07:35.955Z,0
2018-06-08T02:08:44.009Z,0
2018-06-08T02:09:52.100Z,0
2018-06-08T02:11:00.167Z,0
2018-06-08T02:12:08.232Z,0
2018-06-08T02:13:16.306Z,0
2018-06-08T02:14:24.338Z,0
2018-06-08T02:15:32.706Z,0
2018-06-08T02:16:40.513Z,0
2018-06-08T02:17:48.586Z,0
2018-06-08T02:18:56.649Z,0
2018-06-08T02:20:04.693Z,0
2018-06-08T02:21:12.990Z,0
2018-06-08T02:22:21.260Z,0
2018-06-08T02:23:29.425Z,0
2018-06-08T02:24:37.746Z,0
2018-06-08T02:25:45.471Z,0
2018-06-08T02:26:53.571Z,0
2018-06-08T02:28:01.589Z,0
2018-06-08T02:29:09.659Z,0
2018-06-08T02:30:17.734Z,0
2018-06-08T02:31:26.054Z,0
2018-06-08T02:32:33.845Z,0
2018-06-08T02:33:42.188Z,0
2018-06-08T02:34:49.998Z,0
2018-06-08T02:35:58.075Z,0
2018-06-08T02:37:06.245Z,0
2018-06-08T02:38:14.163Z,0
2018-06-08T02:39:22.285Z,0
2018-06-08T02:40:30.428Z,0
2018-06-08T02:41:38.602Z,0
2018-06-08T02:42:46.687Z,0
2018-06-08T02:43:54.748Z,0
2018-06-08T02:45:02.812Z,0
2018-06-08T02:46:10.880Z,0
2018-06-08T02:47:18.940Z,0
2018-06-08T02:48:27.012Z,0
2018-06-08T02:49:35.082Z,0
2018-06-08T02:50:43.134Z,0
2018-06-08T02:51:51.545Z,0
2018-06-08T02:52:59.287Z,0
2018-06-08T02:54:07.352Z,0
2018-06-08T02:55:15.406Z,0
2018-06-08T02:56:23.476Z,0
2018-06-08T02:57:31.563Z,0
2018-06-08T02:58:39.603Z,0
2018-06-08T02:59:47.667Z,0
2018-06-08T03:00:55.746Z,0
2018-06-08T03:02:03.800Z,0
2018-06-08T03:03:11.877Z,0
2018-06-08T03:04:19.934Z,0
2018-06-08T03:05:28.096Z,0
2018-06-08T03:06:36.279Z,0
2018-06-08T03:07:44.323Z,0
2018-06-08T03:08:52.412Z,0
2018-06-08T03:10:00.674Z,0
2018-06-08T03:11:08.741Z,0
2018-06-08T03:12:16.806Z,0
2018-06-08T03:13:24.864Z,0
2018-06-08T03:14:32.930Z,0
2018-06-08T03:15:41.007Z,0
2018-06-08T03:16:49.076Z,0
2018-06-08T03:17:58.168Z,0
2018-06-08T03:19:05.464Z,0
2018-06-08T03:20:13.265Z,0
2018-06-08T03:21:21.342Z,5
2018-06-08T03:22:29.444Z,5
2018-06-08T03:23:37.472Z,5
2018-06-08T03:24:45.533Z,5
2018-06-08T03:25:53.858Z,5
2018-06-08T03:27:01.769Z,5
2018-06-08T03:28:09.743Z,5
2018-06-08T03:29:17.798Z,5
2018-06-08T03:30:25.878Z,10
2018-06-08T03:31:33.931Z,10
2018-06-08T03:32:42.023Z,10
2018-06-08T03:33:50.096Z,10
2018-06-08T03:34:58.155Z,10
2018-06-08T03:36:06.200Z,15
2018-06-08T03:37:14.241Z,15
2018-06-08T03:38:22.343Z,15
2018-06-08T03:39:30.408Z,15
2018-06-08T03:40:38.490Z,20
2018-06-08T03:41:46.876Z,20
2018-06-08T03:42:54.575Z,20
2018-06-08T03:44:02.666Z,25
2018-06-08T03:45:10.733Z,25
2018-06-08T03:46:18.812Z,30
2018-06-08T03:47:26.862Z,30
2018-06-08T03:48:34.928Z,35
2018-06-08T03:49:43.005Z,35
2018-06-08T03:50:51.070Z,40
2018-06-08T03:51:59.131Z,40
2018-06-08T03:53:07.246Z,45
2018-06-08T03:54:15.303Z,50
2018-06-08T03:55:23.337Z,55
2018-06-08T03:56:31.408Z,55
2018-06-08T03:57:39.481Z,60
2018-06-08T03:58:47.526Z,65
2018-06-08T03:59:55.596Z,65
2018-06-08T04:01:03.708Z,70
2018-06-08T04:02:11.766Z,70
2018-06-08T04:03:19.790Z,70
2018-06-08T04:04:27.860Z,70
2018-06-08T04:05:35.925Z,75
2018-06-08T04:06:44.533Z,75
2018-06-08T04:07:52.059Z,75
2018-06-08T04:09:00.167Z,80
2018-06-08T04:10:08.195Z,85
2018-06-08T04:11:16.272Z,85
2018-06-08T04:12:24.396Z,85
2018-06-08T04:13:32.746Z,85
2018-06-08T04:14:40.453Z,85
2018-06-08T04:15:48.564Z,90
2018-06-08T04:16:56.590Z,95
2018-06-08T04:18:04.629Z,100
2018-06-08T04:19:12.927Z,105
2018-06-08T04:20:21.007Z,110
2018-06-08T04:21:29.092Z,120
2018-06-08T04:22:37.140Z,125
2018-06-08T04:23:45.194Z,125
2018-06-08T04:24:53.265Z,130
2018-06-08T04:26:01.336Z,135
2018-06-08T04:27:09.506Z,140
2018-06-08T04:28:17.470Z,145
2018-06-08T04:29:25.558Z,150
2018-06-08T04:30:33.618Z,155
2018-06-08T04:31:41.691Z,160
2018-06-08T04:32:49.817Z,165
2018-06-08T04:33:57.826Z,170
2018-06-08T04:35:05.878Z,175
2018-06-08T04:36:13.937Z,180
2018-06-08T04:37:22.016Z,185
2018-06-08T04:38:30.742Z,190
2018-06-08T04:39:38.142Z,195
2018-06-08T04:40:46.515Z,200
2018-06-08T04:41:54.266Z,205
2018-06-08T04:43:02.352Z,210
2018-06-08T04:44:10.431Z,215
2018-06-08T04:45:18.687Z,220
2018-06-08T04:46:26.762Z,225
2018-06-08T04:47:35.130Z,230
2018-06-08T04:48:42.902Z,235
2018-06-08T04:49:51.467Z,235
2018-06-08T04:50:59.236Z,240
2018-06-08T04:52:07.298Z,245
2018-06-08T04:53:15.717Z,255
2018-06-08T04:54:23.426Z,255
2018-06-08T04:55:31.502Z,260
2018-06-08T04:56:39.582Z,260
2018-06-08T04:57:47.631Z,260
2018-06-08T04:58:55.698Z,265
2018-06-08T05:00:03.936Z,265
2018-06-08T05:01:11.850Z,265
2018-06-08T05:02:19.914Z,265
2018-06-08T05:03:28.008Z,270
2018-06-08T05:04:36.042Z,270
2018-06-08T05:05:44.623Z,285
2018-06-08T05:06:52.244Z,330
2018-06-08T05:08:00.352Z,335
2018-06-08T05:09:08.499Z,295
2018-06-08T05:10:17.097Z,265
2018-06-08T05:11:24.435Z,265
2018-06-08T05:12:33.101Z,265
2018-06-08T05:13:40.607Z,260
2018-06-08T05:14:48.706Z,255
2018-06-08T05:15:56.744Z,255
2018-06-08T05:17:04.783Z,255
2018-06-08T05:18:13.407Z,260
2018-06-08T05:19:20.988Z,270
2018-06-08T05:20:29.012Z,280
2018-06-08T05:21:37.388Z,290
2018-06-08T05:22:46.210Z,295
2018-06-08T05:23:53.235Z,300
2018-06-08T05:25:01.498Z,295
2018-06-08T05:26:09.581Z,300
2018-06-08T05:27:17.619Z,305
2018-06-08T05:28:25.714Z,300
2018-06-08T05:29:33.767Z,305
2018-06-08T05:30:42.028Z,305
2018-06-08T05:31:50.178Z,300
2018-06-08T05:32:58.484Z,290
2018-06-08T05:34:06.238Z,295
2018-06-08T05:35:14.276Z,295
2018-06-08T05:36:22.384Z,300
2018-06-08T05:37:30.460Z,300
2018-06-08T05:38:38.532Z,310
2018-06-08T05:39:46.631Z,320
2018-06-08T05:40:54.893Z,335
2018-06-08T05:42:02.741Z,345
2018-06-08T05:43:10.804Z,360
2018-06-08T05:44:18.879Z,365
2018-06-08T05:45:26.944Z,370
2018-06-08T05:46:35.014Z,370
2018-06-08T05:47:43.085Z,365
2018-06-08T05:48:51.499Z,375
2018-06-08T05:49:59.209Z,370
2018-06-08T05:51:07.295Z,375
2018-06-08T05:52:15.363Z,380
2018-06-08T05:53:23.445Z,390
2018-06-08T05:54:31.518Z,390
2018-06-08T05:55:39.578Z,395
2018-06-08T05:56:47.650Z,415
2018-06-08T05:57:55.727Z,430
2018-06-08T05:59:03.781Z,450
2018-06-08T06:00:11.859Z,470
2018-06-08T06:01:19.934Z,480
2018-06-08T06:02:28.000Z,475
2018-06-08T06:03:36.072Z,460
2018-06-08T06:04:44.215Z,440
2018-06-08T06:05:52.213Z,425
2018-06-08T06:07:00.522Z,415
2018-06-08T06:08:08.390Z,410
2018-06-08T06:09:16.434Z,395
2018-06-08T06:10:24.468Z,385
2018-06-08T06:11:32.562Z,365
2018-06-08T06:12:40.630Z,340
2018-06-08T06:13:49.056Z,320
2018-06-08T06:14:56.833Z,300
2018-06-08T06:16:04.840Z,295
2018-06-08T06:17:12.919Z,290
2018-06-08T06:18:20.985Z,295
2018-06-08T06:19:29.048Z,305
2018-06-08T06:20:37.127Z,300
2018-06-08T06:21:45.389Z,295
2018-06-08T06:22:53.716Z,290
2018-06-08T06:24:01.547Z,295
2018-06-08T06:25:09.607Z,295
2018-06-08T06:26:17.675Z,295
2018-06-08T06:27:25.759Z,305
2018-06-08T06:28:33.994Z,315
2018-06-08T06:29:42.185Z,320
2018-06-08T06:30:50.159Z,330
2018-06-08T06:31:58.246Z,335
2018-06-08T06:33:07.373Z,365
2018-06-08T06:34:14.609Z,385
2018-06-08T06:35:22.494Z,425
2018-06-08T06:36:30.518Z,470
2018-06-08T06:37:38.620Z,480
2018-06-08T06:38:46.663Z,480
2018-06-08T06:39:54.798Z,470
2018-06-08T06:41:02.798Z,455
2018-06-08T06:42:10.875Z,450
2018-06-08T06:43:20.020Z,435
2018-06-08T06:44:27.031Z,425
2018-06-08T06:45:35.088Z,410
2018-06-08T06:46:43.423Z,405
2018-06-08T06:47:51.232Z,395
2018-06-08T06:48:59.299Z,390
2018-06-08T06:50:07.371Z,395
2018-06-08T06:51:15.433Z,405
2018-06-08T06:52:23.507Z,420
2018-06-08T06:53:31.574Z,430
2018-06-08T06:54:39.653Z,430
2018-06-08T06:55:47.733Z,430
2018-06-08T06:56:55.831Z,435
2018-06-08T06:58:03.835Z,445
2018-06-08T06:59:11.975Z,465
2018-06-08T07:00:20.015Z,470
2018-06-08T07:01:28.083Z,450
2018-06-08T07:02:36.154Z,450
2018-06-08T07:03:44.239Z,455
2018-06-08T07:04:52.292Z,495
2018-06-08T07:06:00.373Z,525
2018-06-08T07:07:08.434Z,610
2018-06-08T07:08:16.500Z,650
2018-06-08T07:09:24.549Z,555
2018-06-08T07:10:32.638Z,510
2018-06-08T07:11:40.727Z,520
2018-06-08T07:12:48.832Z,545
2018-06-08T07:13:56.852Z,620
2018-06-08T07:15:05.276Z,920
2018-06-08T07:16:13.295Z,740
2018-06-08T07:17:21.280Z,540
2018-06-08T07:18:29.366Z,585
2018-06-08T07:19:37.412Z,525
2018-06-08T07:20:45.498Z,520
2018-06-08T07:21:53.581Z,505
2018-06-08T07:23:01.648Z,510
2018-06-08T07:24:09.714Z,490
2018-06-08T07:25:17.828Z,470
2018-06-08T07:26:25.888Z,455
2018-06-08T07:27:33.925Z,430
2018-06-08T07:28:42.013Z,400
2018-06-08T07:29:50.087Z,375
2018-06-08T07:30:58.158Z,450
2018-06-08T07:32:06.250Z,550
2018-06-08T07:33:14.267Z,1295
2018-06-08T07:34:22.373Z,1640
2018-06-08T07:35:30.535Z,1700
2018-06-08T07:36:38.516Z,1775
2018-06-08T07:37:46.676Z,1690
2018-06-08T07:38:54.635Z,1715
2018-06-08T07:40:04.999Z,1765
2018-06-08T07:41:13.044Z,1755
2018-06-08T07:42:21.101Z,1810
2018-06-08T07:43:29.173Z,1870
2018-06-08T07:44:37.252Z,1825
2018-06-08T07:45:45.315Z,1805
2018-06-08T07:46:53.410Z,1870
2018-06-08T07:48:01.481Z,1880
2018-06-08T07:49:09.801Z,1830
2018-06-08T07:50:17.831Z,1845
2018-06-08T07:51:25.908Z,1840
2018-06-08T07:52:33.957Z,1870
2018-06-08T07:53:42.116Z,1955
2018-06-08T07:54:50.140Z,1985
2018-06-08T07:55:58.262Z,1980
2018-06-08T07:57:06.300Z,2020
2018-06-08T07:58:14.572Z,1935
2018-06-08T07:59:22.676Z,1970
2018-06-08T08:00:30.787Z,1975
2018-06-08T08:01:38.839Z,2050
2018-06-08T08:02:47.045Z,2120
2018-06-08T08:03:54.997Z,2065
2018-06-08T08:05:03.122Z,1545
2018-06-08T08:06:11.175Z,2035
2018-06-08T08:07:20.335Z,1985
2018-06-08T08:08:27.329Z,1970
2018-06-08T08:09:35.409Z,1560
2018-06-08T08:10:43.487Z,1180
2018-06-08T08:11:51.580Z,1445
2018-06-08T08:12:59.643Z,1525
2018-06-08T08:14:07.727Z,1850
2018-06-08T08:15:15.804Z,1940
2018-06-08T08:16:23.886Z,1955
2018-06-08T08:17:31.973Z,1965
2018-06-08T08:18:40.070Z,1995
2018-06-08T08:19:48.136Z,1955
2018-06-08T08:20:56.231Z,1985
2018-06-08T08:22:04.282Z,1970
2018-06-08T08:23:12.399Z,2005
2018-06-08T08:24:20.721Z,2110
2018-06-08T08:25:28.562Z,2100
2018-06-08T08:26:36.631Z,2090
2018-06-08T08:27:44.694Z,2110
2018-06-08T08:28:52.798Z,965
2018-06-08T08:30:00.883Z,1490
2018-06-08T08:31:08.967Z,785
2018-06-08T08:32:17.044Z,1960
2018-06-08T08:33:25.119Z,1865
2018-06-08T08:34:33.463Z,1355
2018-06-08T08:35:41.294Z,1675
2018-06-08T08:36:49.378Z,1945
2018-06-08T08:37:57.453Z,1980
2018-06-08T08:39:05.540Z,1950
2018-06-08T08:40:13.612Z,1820
2018-06-08T08:41:41.104Z,1855
2018-06-08T08:42:33.058Z,1770
2018-06-08T08:43:40.448Z,1810
2018-06-08T08:44:46.147Z,1830
2018-06-08T08:45:54.463Z,1785
2018-06-08T08:47:02.316Z,1755
2018-06-08T08:48:10.386Z,1715
2018-06-08T08:49:18.476Z,1730
2018-06-08T08:50:26.581Z,1745
2018-06-08T08:51:34.898Z,1705
2018-06-08T08:52:42.720Z,1730
2018-06-08T08:53:50.798Z,1690
2018-06-08T08:54:58.874Z,1910
2018-06-08T08:56:10.796Z,1735
2018-06-08T08:57:19.127Z,1600
2018-06-08T08:58:28.012Z,1735
2018-06-08T08:59:35.033Z,1810
2018-06-08T09:00:43.109Z,1810
2018-06-08T09:01:51.180Z,1840
2018-06-08T09:02:59.291Z,1825
2018-06-08T09:04:07.362Z,1825
2018-06-08T09:05:15.451Z,1870
2018-06-08T09:06:23.514Z,1930
2018-06-08T09:07:31.823Z,1985
2018-06-08T09:08:39.889Z,1925
2018-06-08T09:09:47.966Z,1970
2018-06-08T09:10:56.051Z,1915
2018-06-08T09:12:04.121Z,1860
2018-06-08T09:13:12.222Z,1800
2018-06-08T09:14:20.310Z,1780
2018-06-08T09:15:28.394Z,1810
2018-06-08T09:16:36.932Z,1780
2018-06-08T09:17:44.730Z,1830
2018-06-08T09:18:52.830Z,1720
2018-06-08T09:20:00.909Z,1255
2018-06-08T09:21:09.097Z,735
2018-06-08T09:22:17.077Z,670
2018-06-08T09:23:25.174Z,660
2018-06-08T09:24:33.266Z,620
2018-06-08T09:25:41.325Z,615
2018-06-08T09:26:49.601Z,640
2018-06-08T09:27:57.684Z,690
2018-06-08T09:29:05.772Z,755
2018-06-08T09:30:13.821Z,735
2018-06-08T09:31:22.028Z,625
2018-06-08T09:32:30.003Z,630
2018-06-08T09:33:38.087Z,655
2018-06-08T09:34:46.152Z,650
2018-06-08T09:35:54.231Z,675
2018-06-08T09:37:02.336Z,675
2018-06-08T09:38:10.419Z,675
2018-06-08T09:39:18.490Z,690
2018-06-08T09:40:26.585Z,690
2018-06-08T09:41:34.626Z,710
2018-06-08T09:42:42.734Z,675
2018-06-08T09:43:50.819Z,650
2018-06-08T09:44:58.970Z,595
2018-06-08T09:46:06.964Z,535
2018-06-08T09:47:15.031Z,510
2018-06-08T09:48:23.113Z,515
2018-06-08T09:49:31.194Z,550
2018-06-08T09:50:39.282Z,565
2018-06-08T09:51:47.349Z,550
2018-06-08T09:52:55.442Z,550
2018-06-08T09:54:03.513Z,555
2018-06-08T09:55:11.585Z,545
2018-06-08T09:56:19.664Z,525
2018-06-08T09:57:27.755Z,480
2018-06-08T09:58:35.812Z,510
2018-06-08T09:59:44.065Z,510
2018-06-08T10:00:52.175Z,450
2018-06-08T10:02:00.243Z,450
2018-06-08T10:03:08.322Z,485
2018-06-08T10:04:17.445Z,555
2018-06-08T10:05:24.554Z,605
2018-06-08T10:06:32.574Z,660
2018-06-08T10:07:40.651Z,665
2018-06-08T10:08:48.714Z,660
2018-06-08T10:09:56.800Z,615
2018-06-08T10:11:05.925Z,675
2018-06-08T10:12:12.960Z,735
2018-06-08T10:13:21.009Z,765
2018-06-08T10:14:29.102Z,765
2018-06-08T10:15:37.174Z,725
2018-06-08T10:16:45.250Z,680
2018-06-08T10:17:53.319Z,695
2018-06-08T10:19:01.388Z,705
2018-06-08T10:20:09.485Z,715
2018-06-08T10:21:17.588Z,715
2018-06-08T10:22:25.628Z,720
2018-06-08T10:23:33.952Z,690
2018-06-08T10:24:41.779Z,665
2018-06-08T10:25:49.853Z,655
2018-06-08T10:26:57.941Z,675
2018-06-08T10:28:06.021Z,685
2018-06-08T10:29:15.293Z,675
2018-06-08T10:30:22.382Z,695
2018-06-08T10:31:30.643Z,650
2018-06-08T10:32:38.724Z,605
2018-06-08T10:33:46.802Z,625
2018-06-08T10:34:54.866Z,645
2018-06-08T10:36:02.945Z,720
2018-06-08T10:37:11.304Z,770
2018-06-08T10:38:19.332Z,800
2018-06-08T10:39:27.374Z,750
2018-06-08T10:40:35.498Z,750
2018-06-08T10:41:43.538Z,740
2018-06-08T10:42:51.616Z,680
2018-06-08T10:43:59.682Z,640
2018-06-08T10:45:07.775Z,650
2018-06-08T10:46:15.860Z,675
2018-06-08T10:47:23.994Z,650
2018-06-08T10:48:31.995Z,580
2018-06-08T10:49:40.062Z,540
2018-06-08T10:50:48.357Z,535
2018-06-08T10:51:56.654Z,555
2018-06-08T10:53:04.708Z,565
2018-06-08T10:54:12.773Z,575
2018-06-08T10:55:20.849Z,585
2018-06-08T10:56:28.931Z,655
2018-06-08T10:57:37.001Z,690
2018-06-08T10:58:45.076Z,695
2018-06-08T10:59:53.257Z,665
2018-06-08T11:01:01.249Z,630
2018-06-08T11:02:09.311Z,595
2018-06-08T11:03:17.389Z,620
2018-06-08T11:04:25.464Z,615
2018-06-08T11:05:33.540Z,610
2018-06-08T11:06:41.915Z,535
2018-06-08T11:07:49.691Z,445
2018-06-08T11:08:57.768Z,440
2018-06-08T11:10:05.853Z,465
2018-06-08T11:11:13.908Z,490
2018-06-08T11:12:22.012Z,505
2018-06-08T11:13:30.081Z,495
2018-06-08T11:14:38.156Z,420
2018-06-08T11:15:46.240Z,370
2018-06-08T11:16:54.275Z,370
2018-06-08T11:18:02.391Z,360
2018-06-08T11:19:10.456Z,360
2018-06-08T11:20:18.528Z,370
2018-06-08T11:21:27.766Z,405
2018-06-08T11:22:34.658Z,425
2018-06-08T11:23:42.767Z,415
2018-06-08T11:24:50.839Z,450
2018-06-08T11:25:59.474Z,510
2018-06-08T11:27:07.548Z,490
2018-06-08T11:28:15.274Z,450
2018-06-08T11:29:23.345Z,445
2018-06-08T11:30:31.617Z,485
2018-06-08T11:31:39.702Z,540
2018-06-08T11:32:47.826Z,565
2018-06-08T11:33:55.924Z,575
2018-06-08T11:35:03.899Z,600
2018-06-08T11:36:12.008Z,595
2018-06-08T11:37:20.071Z,540
2018-06-08T11:38:28.150Z,525
2018-06-08T11:39:36.230Z,480
2018-06-08T11:40:44.272Z,435
2018-06-08T11:41:52.382Z,470
2018-06-08T11:43:00.448Z,475
2018-06-08T11:44:08.534Z,435
2018-06-08T11:45:16.612Z,440
2018-06-08T11:46:24.655Z,410
2018-06-08T11:47:32.767Z,365
2018-06-08T11:48:40.829Z,380
2018-06-08T11:49:48.905Z,405
2018-06-08T11:50:56.992Z,415
2018-06-08T11:52:05.109Z,430
2018-06-08T11:53:13.181Z,440
2018-06-08T11:54:21.484Z,465
2018-06-08T11:55:30.326Z,465
2018-06-08T11:56:37.365Z,455
2018-06-08T11:57:45.430Z,500
2018-06-08T11:58:53.521Z,505
2018-06-08T12:00:01.600Z,495
2018-06-08T12:01:09.668Z,465
2018-06-08T12:02:18.008Z,490
2018-06-08T12:03:25.818Z,480
2018-06-08T12:04:33.879Z,470
2018-06-08T12:05:41.980Z,475
2018-06-08T12:06:50.057Z,495
2018-06-08T12:07:58.120Z,485
2018-06-08T12:09:06.282Z,485
2018-06-08T12:10:14.241Z,480
2018-06-08T12:11:22.359Z,455
2018-06-08T12:12:30.430Z,425
2018-06-08T12:13:38.517Z,410
2018-06-08T12:14:46.664Z,450
2018-06-08T12:15:54.624Z,515
2018-06-08T12:17:02.731Z,560
2018-06-08T12:18:10.806Z,565
2018-06-08T12:19:18.875Z,620
2018-06-08T12:20:27.057Z,625
2018-06-08T12:21:35.152Z,505
2018-06-08T12:22:43.116Z,420
2018-06-08T12:23:51.188Z,475
2018-06-08T12:24:59.267Z,460
2018-06-08T12:26:07.342Z,445
2018-06-08T12:27:15.524Z,405
2018-06-08T12:28:23.495Z,420
2018-06-08T12:29:31.577Z,420
2018-06-08T12:30:39.689Z,425
2018-06-08T12:31:47.731Z,450
2018-06-08T12:32:55.824Z,500
2018-06-08T12:34:03.886Z,550
2018-06-08T12:35:11.953Z,590
2018-06-08T12:36:20.016Z,590
2018-06-08T12:37:28.099Z,600
2018-06-08T12:38:36.168Z,490
2018-06-08T12:39:44.223Z,465
2018-06-08T12:40:52.333Z,520
2018-06-08T12:42:00.485Z,525
2018-06-08T12:43:08.729Z,525
2018-06-08T12:44:16.564Z,515
2018-06-08T12:45:24.658Z,525
2018-06-08T12:46:32.714Z,530
2018-06-08T12:47:40.780Z,530
2018-06-08T12:48:48.862Z,530
2018-06-08T12:49:56.950Z,560
2018-06-08T12:51:05.020Z,565
2018-06-08T12:52:13.088Z,550
2018-06-08T12:53:21.422Z,525
2018-06-08T12:54:29.282Z,495
2018-06-08T12:55:37.368Z,465
2018-06-08T12:56:45.383Z,440
2018-06-08T12:57:53.466Z,420
2018-06-08T12:59:01.542Z,385
2018-06-08T13:00:09.615Z,380
2018-06-08T13:01:17.693Z,375
2018-06-08T13:02:25.769Z,340
2018-06-08T13:03:33.826Z,325
2018-06-08T13:04:41.926Z,310
2018-06-08T13:05:50.249Z,330
2018-06-08T13:06:58.068Z,375
2018-06-08T13:08:06.228Z,390
2018-06-08T13:09:14.194Z,350
2018-06-08T13:10:22.397Z,350
2018-06-08T13:11:30.372Z,340
2018-06-08T13:12:38.443Z,365
2018-06-08T13:13:46.782Z,395
2018-06-08T13:16:12.827Z,400
2018-06-08T13:17:17.605Z,405
2018-06-08T13:18:25.876Z,420
2018-06-08T13:19:35.155Z,445
2018-06-08T13:20:45.850Z,475
2018-06-08T13:21:58.365Z,505
2018-06-08T13:23:06.437Z,485
2018-06-08T13:24:21.574Z,430
2018-06-08T13:25:29.650Z,380
2018-06-08T13:26:37.724Z,355
2018-06-08T13:27:45.784Z,340
2018-06-08T13:28:53.865Z,335
2018-06-08T13:30:01.949Z,300
2018-06-08T13:31:10.052Z,285
2018-06-08T13:32:18.100Z,275
2018-06-08T13:33:26.515Z,285
2018-06-08T13:34:34.863Z,300
2018-06-08T13:35:42.320Z,305
2018-06-08T13:36:50.476Z,310
2018-06-08T13:37:59.038Z,330
2018-06-08T13:39:07.197Z,355
2018-06-08T13:40:14.589Z,350
2018-06-08T13:41:22.683Z,310
2018-06-08T13:43:38.850Z,230
2018-06-08T13:44:46.928Z,215
2018-06-08T13:45:54.979Z,220
2018-06-08T13:47:03.068Z,235
2018-06-08T13:48:11.131Z,245
2018-06-08T13:49:19.204Z,275
2018-06-08T13:50:27.273Z,295
2018-06-08T13:51:35.333Z,325
2018-06-08T13:52:43.417Z,340
2018-06-08T13:53:55.737Z,305
2018-06-08T13:55:06.433Z,260
2018-06-08T13:56:14.474Z,280
2018-06-08T13:57:22.586Z,310
2018-06-08T13:58:30.643Z,345
2018-06-08T13:59:38.715Z,390
2018-06-08T14:00:46.799Z,455
2018-06-08T14:01:54.838Z,540
2018-06-08T14:03:02.935Z,535
2018-06-08T14:04:11.022Z,520
2018-06-08T14:05:19.091Z,545
2018-06-08T14:06:27.173Z,545
2018-06-08T14:07:35.221Z,460
2018-06-08T14:08:43.317Z,385
2018-06-08T14:09:51.397Z,270
2018-06-08T14:10:59.457Z,185
2018-06-08T14:12:07.529Z,155
2018-06-08T14:13:15.593Z,120
2018-06-08T14:14:23.678Z,105
2018-06-08T14:15:31.756Z,95
2018-06-08T14:16:39.858Z,120
2018-06-08T14:17:47.904Z,160
2018-06-08T14:18:56.023Z,175
2018-06-08T14:20:04.044Z,185
2018-06-08T14:21:12.400Z,185
2018-06-08T14:22:20.201Z,190
2018-06-08T14:23:28.300Z,195
2018-06-08T14:24:36.347Z,190
2018-06-08T14:25:44.456Z,185
2018-06-08T14:26:52.494Z,185
2018-06-08T14:28:00.561Z,175
2018-06-08T14:29:08.638Z,170
2018-06-08T14:30:16.722Z,165
2018-06-08T14:31:24.761Z,155
2018-06-08T14:32:32.858Z,145
2018-06-08T14:33:40.936Z,135
2018-06-08T14:34:48.990Z,120
2018-06-08T14:35:57.080Z,115
2018-06-08T14:37:05.112Z,120
2018-06-08T14:38:13.233Z,130
2018-06-08T14:39:21.291Z,135
2018-06-08T14:40:29.377Z,145
2018-06-08T14:41:37.430Z,155
2018-06-08T14:42:45.499Z,170
2018-06-08T14:43:53.559Z,165
2018-06-08T14:45:01.641Z,155
2018-06-08T14:46:09.803Z,150
2018-06-08T14:47:17.796Z,155
2018-06-08T14:48:25.862Z,160
2018-06-08T14:49:33.936Z,170
2018-06-08T14:50:42.003Z,170
2018-06-08T14:51:50.064Z,170
2018-06-08T14:52:58.149Z,170
2018-06-08T14:54:06.217Z,165
2018-06-08T14:55:14.286Z,155
2018-06-08T14:56:22.358Z,140
2018-06-08T14:57:30.424Z,125
2018-06-08T14:58:38.497Z,115
2018-06-08T14:59:46.558Z,105
2018-06-08T15:00:54.609Z,100
2018-06-08T15:02:02.709Z,95
2018-06-08T15:03:10.777Z,95
2018-06-08T15:04:18.856Z,100
2018-06-08T15:05:26.928Z,100
2018-06-08T15:06:34.960Z,95
2018-06-08T15:07:43.071Z,100
2018-06-08T15:08:51.137Z,100
2018-06-08T15:09:59.214Z,100
2018-06-08T15:11:07.339Z,100
2018-06-08T15:12:15.317Z,105
2018-06-08T15:13:23.425Z,110
2018-06-08T15:14:31.498Z,110
2018-06-08T15:15:39.566Z,120
2018-06-08T15:16:47.658Z,125
2018-06-08T15:17:55.696Z,125
2018-06-08T15:19:03.775Z,125
2018-06-08T15:20:11.831Z,125
2018-06-08T15:21:19.906Z,125
2018-06-08T15:22:27.971Z,125
2018-06-08T15:23:36.088Z,130
2018-06-08T15:24:44.120Z,130
2018-06-08T15:25:52.191Z,130
2018-06-08T15:27:00.257Z,130
2018-06-08T15:28:08.335Z,125
2018-06-08T15:29:16.434Z,125
2018-06-08T15:30:24.464Z,125
2018-06-08T15:31:32.532Z,125
2018-06-08T15:32:40.607Z,125
2018-06-08T15:33:48.691Z,130
2018-06-08T15:34:56.754Z,140
2018-06-08T15:36:04.796Z,155
2018-06-08T15:37:12.890Z,170
2018-06-08T15:38:20.959Z,195
2018-06-08T15:39:29.025Z,215
2018-06-08T15:40:37.146Z,225
2018-06-08T15:41:45.146Z,235
2018-06-08T15:42:53.242Z,230
2018-06-08T15:44:01.299Z,220
2018-06-08T15:45:09.372Z,205
2018-06-08T15:46:17.455Z,190
2018-06-08T15:47:25.514Z,180
2018-06-08T15:48:33.596Z,170
2018-06-08T15:49:41.668Z,160
2018-06-08T15:50:49.745Z,145
2018-06-08T15:51:57.797Z,135
2018-06-08T15:53:05.872Z,125